sensor_id;sensor_type;location;lat;lon;timestamp;pressure;altitude;pressure_sealevel;temperature
75811;BMP280;64449;50.016;19.954;2023-04-01T00:01:07;96999.70;;;12.55
75811;BMP280;64449;50.016;19.954;2023-04-01T00:03:33;96997.78;;;12.51
75811;BMP280;64449;50.016;19.954;2023-04-01T00:06:00;97003.96;;;12.49
75811;BMP280;64449;50.016;19.954;2023-04-01T00:08:26;97003.94;;;12.47
75811;BMP280;64449;50.016;19.954;2023-04-01T00:10:52;97004.59;;;12.46
75811;BMP280;64449;50.016;19.954;2023-04-01T00:13:18;96998.23;;;12.44
75811;BMP280;64449;50.016;19.954;2023-04-01T00:15:44;96993.85;;;12.41
75811;BMP280;64449;50.016;19.954;2023-04-01T00:18:10;96992.89;;;12.40
75811;BMP280;64449;50.016;19.954;2023-04-01T00:20:36;96991.66;;;12.39
75811;BMP280;64449;50.016;19.954;2023-04-01T00:23:02;96987.36;;;12.37
75811;BMP280;64449;50.016;19.954;2023-04-01T00:25:28;96983.02;;;12.36
75811;BMP280;64449;50.016;19.954;2023-04-01T00:27:54;96979.11;;;12.35
75811;BMP280;64449;50.016;19.954;2023-04-01T00:30:19;96977.97;;;12.34
75811;BMP280;64449;50.016;19.954;2023-04-01T00:32:45;96976.73;;;12.31
75811;BMP280;64449;50.016;19.954;2023-04-01T00:35:11;96971.47;;;12.29
75811;BMP280;64449;50.016;19.954;2023-04-01T00:37:38;96969.98;;;12.27
75811;BMP280;64449;50.016;19.954;2023-04-01T00:40:07;96974.60;;;12.26
75811;BMP280;64449;50.016;19.954;2023-04-01T00:42:33;96976.19;;;12.25
75811;BMP280;64449;50.016;19.954;2023-04-01T00:44:58;96974.70;;;12.25
75811;BMP280;64449;50.016;19.954;2023-04-01T00:47:44;96971.33;;;12.25
75811;BMP280;64449;50.016;19.954;2023-04-01T00:50:09;96968.56;;;12.26
75811;BMP280;64449;50.016;19.954;2023-04-01T00:52:35;96965.30;;;12.26
75811;BMP280;64449;50.016;19.954;2023-04-01T00:55:01;96967.74;;;12.24
75811;BMP280;64449;50.016;19.954;2023-04-01T00:57:34;96968.31;;;12.23
75811;BMP280;64449;50.016;19.954;2023-04-01T01:00:05;96965.61;;;12.22
75811;BMP280;64449;50.016;19.954;2023-04-01T01:02:32;96966.77;;;12.21
75811;BMP280;64449;50.016;19.954;2023-04-01T01:04:58;96970.89;;;12.20
75811;BMP280;64449;50.016;19.954;2023-04-01T01:07:35;96971.09;;;12.21
75811;BMP280;64449;50.016;19.954;2023-04-01T01:10:10;96969.15;;;12.19
75811;BMP280;64449;50.016;19.954;2023-04-01T01:15:26;96973.37;;;12.17
75811;BMP280;64449;50.016;19.954;2023-04-01T01:18:09;96978.08;;;12.17
75811;BMP280;64449;50.016;19.954;2023-04-01T01:20:44;96982.33;;;12.18
75811;BMP280;64449;50.016;19.954;2023-04-01T01:23:47;96983.33;;;12.19
75811;BMP280;64449;50.016;19.954;2023-04-01T01:34:45;96978.63;;;12.23
75811;BMP280;64449;50.016;19.954;2023-04-01T01:37:16;96970.81;;;12.19
75811;BMP280;64449;50.016;19.954;2023-04-01T01:39:45;96973.85;;;12.19
75811;BMP280;64449;50.016;19.954;2023-04-01T01:42:14;96977.66;;;12.19
75811;BMP280;64449;50.016;19.954;2023-04-01T01:44:42;96981.64;;;12.19
75811;BMP280;64449;50.016;19.954;2023-04-01T01:47:09;96984.34;;;12.18
75811;BMP280;64449;50.016;19.954;2023-04-01T01:49:36;96985.69;;;12.18
75811;BMP280;64449;50.016;19.954;2023-04-01T01:52:04;96990.23;;;12.20
75811;BMP280;64449;50.016;19.954;2023-04-01T01:54:29;96997.38;;;12.21
75811;BMP280;64449;50.016;19.954;2023-04-01T01:57:03;96991.05;;;12.21
75811;BMP280;64449;50.016;19.954;2023-04-01T01:59:33;96989.30;;;12.22
75811;BMP280;64449;50.016;19.954;2023-04-01T02:02:02;96990.60;;;12.21
75811;BMP280;64449;50.016;19.954;2023-04-01T02:04:35;96990.48;;;12.22
75811;BMP280;64449;50.016;19.954;2023-04-01T02:07:08;96993.69;;;12.22
75811;BMP280;64449;50.016;19.954;2023-04-01T02:09:36;96988.02;;;12.22
75811;BMP280;64449;50.016;19.954;2023-04-01T02:12:05;96989.31;;;12.22
75811;BMP280;64449;50.016;19.954;2023-04-01T02:17:11;96989.22;;;12.17
75811;BMP280;64449;50.016;19.954;2023-04-01T02:19:54;96998.20;;;12.14
75811;BMP280;64449;50.016;19.954;2023-04-01T02:22:23;97000.48;;;12.11
75811;BMP280;64449;50.016;19.954;2023-04-01T02:24:52;96999.11;;;12.09
75811;BMP280;64449;50.016;19.954;2023-04-01T02:27:19;97000.49;;;12.07
75811;BMP280;64449;50.016;19.954;2023-04-01T02:29:45;97001.35;;;12.06
75811;BMP280;64449;50.016;19.954;2023-04-01T02:32:12;97002.36;;;12.03
75811;BMP280;64449;50.016;19.954;2023-04-01T02:34:39;97002.65;;;11.99
75811;BMP280;64449;50.016;19.954;2023-04-01T02:37:04;97004.10;;;11.96
75811;BMP280;64449;50.016;19.954;2023-04-01T02:39:30;97004.14;;;11.94
75811;BMP280;64449;50.016;19.954;2023-04-01T02:41:56;97009.27;;;11.90
75811;BMP280;64449;50.016;19.954;2023-04-01T02:44:21;97016.86;;;11.87
75811;BMP280;64449;50.016;19.954;2023-04-01T02:46:47;97021.42;;;11.83
75811;BMP280;64449;50.016;19.954;2023-04-01T02:49:12;97021.79;;;11.79
75811;BMP280;64449;50.016;19.954;2023-04-01T02:51:38;97023.98;;;11.77
75811;BMP280;64449;50.016;19.954;2023-04-01T02:54:03;97025.31;;;11.76
75811;BMP280;64449;50.016;19.954;2023-04-01T02:56:29;97025.84;;;11.75
75811;BMP280;64449;50.016;19.954;2023-04-01T02:58:54;97024.27;;;11.75
75811;BMP280;64449;50.016;19.954;2023-04-01T03:01:20;97027.52;;;11.75
75811;BMP280;64449;50.016;19.954;2023-04-01T03:03:46;97025.05;;;11.75
75811;BMP280;64449;50.016;19.954;2023-04-01T03:06:13;97024.22;;;11.76
75811;BMP280;64449;50.016;19.954;2023-04-01T03:08:40;97022.81;;;11.76
75811;BMP280;64449;50.016;19.954;2023-04-01T03:11:05;97027.33;;;11.76
75811;BMP280;64449;50.016;19.954;2023-04-01T03:13:31;97027.29;;;11.75
75811;BMP280;64449;50.016;19.954;2023-04-01T03:15:57;97028.53;;;11.74
75811;BMP280;64449;50.016;19.954;2023-04-01T03:18:22;97033.05;;;11.74
75811;BMP280;64449;50.016;19.954;2023-04-01T03:20:47;97030.48;;;11.73
75811;BMP280;64449;50.016;19.954;2023-04-01T03:23:13;97028.85;;;11.74
75811;BMP280;64449;50.016;19.954;2023-04-01T03:25:38;97029.11;;;11.74
75811;BMP280;64449;50.016;19.954;2023-04-01T03:28:04;97025.11;;;11.73
75811;BMP280;64449;50.016;19.954;2023-04-01T03:30:30;97019.06;;;11.72
75811;BMP280;64449;50.016;19.954;2023-04-01T03:32:57;97019.88;;;11.72
75811;BMP280;64449;50.016;19.954;2023-04-01T03:35:23;97018.38;;;11.73
75811;BMP280;64449;50.016;19.954;2023-04-01T03:37:53;97024.21;;;11.73
75811;BMP280;64449;50.016;19.954;2023-04-01T03:40:18;97025.72;;;11.72
75811;BMP280;64449;50.016;19.954;2023-04-01T03:42:44;97024.92;;;11.72
75811;BMP280;64449;50.016;19.954;2023-04-01T03:45:10;97021.77;;;11.72
75811;BMP280;64449;50.016;19.954;2023-04-01T03:47:37;97022.11;;;11.72
75811;BMP280;64449;50.016;19.954;2023-04-01T03:50:04;97025.09;;;11.72
75811;BMP280;64449;50.016;19.954;2023-04-01T03:52:30;97027.89;;;11.72
75811;BMP280;64449;50.016;19.954;2023-04-01T03:54:55;97028.14;;;11.72
75811;BMP280;64449;50.016;19.954;2023-04-01T03:57:21;97026.99;;;11.71
75811;BMP280;64449;50.016;19.954;2023-04-01T03:59:46;97029.04;;;11.71
75811;BMP280;64449;50.016;19.954;2023-04-01T04:02:12;97032.31;;;11.71
75811;BMP280;64449;50.016;19.954;2023-04-01T04:04:37;97034.81;;;11.71
75811;BMP280;64449;50.016;19.954;2023-04-01T04:07:03;97035.30;;;11.71
75811;BMP280;64449;50.016;19.954;2023-04-01T04:09:30;97038.67;;;11.73
75811;BMP280;64449;50.016;19.954;2023-04-01T04:11:55;97036.27;;;11.73
75811;BMP280;64449;50.016;19.954;2023-04-01T04:14:22;97036.02;;;11.74
75811;BMP280;64449;50.016;19.954;2023-04-01T04:16:48;97040.49;;;11.75
75811;BMP280;64449;50.016;19.954;2023-04-01T04:19:14;97043.73;;;11.75
75811;BMP280;64449;50.016;19.954;2023-04-01T04:21:40;97044.75;;;11.77
75811;BMP280;64449;50.016;19.954;2023-04-01T04:24:06;97048.25;;;11.79
75811;BMP280;64449;50.016;19.954;2023-04-01T04:26:31;97048.81;;;11.81
75811;BMP280;64449;50.016;19.954;2023-04-01T04:28:57;97048.48;;;11.82
75811;BMP280;64449;50.016;19.954;2023-04-01T04:31:24;97049.86;;;11.84
75811;BMP280;64449;50.016;19.954;2023-04-01T04:33:50;97047.84;;;11.86
75811;BMP280;64449;50.016;19.954;2023-04-01T04:36:17;97048.29;;;11.88
75811;BMP280;64449;50.016;19.954;2023-04-01T04:38:43;97048.12;;;11.89
75811;BMP280;64449;50.016;19.954;2023-04-01T04:41:18;97049.22;;;11.91
75811;BMP280;64449;50.016;19.954;2023-04-01T04:43:55;97048.85;;;11.92
75811;BMP280;64449;50.016;19.954;2023-04-01T04:46:21;97048.45;;;11.92
75811;BMP280;64449;50.016;19.954;2023-04-01T04:48:47;97050.34;;;11.92
75811;BMP280;64449;50.016;19.954;2023-04-01T04:51:17;97051.14;;;11.92
75811;BMP280;64449;50.016;19.954;2023-04-01T04:53:44;97048.39;;;11.93
75811;BMP280;64449;50.016;19.954;2023-04-01T04:56:10;97051.91;;;11.93
75811;BMP280;64449;50.016;19.954;2023-04-01T04:58:37;97052.77;;;11.92
75811;BMP280;64449;50.016;19.954;2023-04-01T05:01:08;97055.63;;;11.94
75811;BMP280;64449;50.016;19.954;2023-04-01T05:03:33;97054.55;;;11.95
75811;BMP280;64449;50.016;19.954;2023-04-01T05:05:59;97056.88;;;11.95
75811;BMP280;64449;50.016;19.954;2023-04-01T05:08:24;97056.88;;;11.96
75811;BMP280;64449;50.016;19.954;2023-04-01T05:10:50;97061.30;;;11.97
75811;BMP280;64449;50.016;19.954;2023-04-01T05:13:15;97057.95;;;11.97
75811;BMP280;64449;50.016;19.954;2023-04-01T05:15:41;97058.75;;;11.98
75811;BMP280;64449;50.016;19.954;2023-04-01T05:18:06;97060.11;;;12.01
75811;BMP280;64449;50.016;19.954;2023-04-01T05:20:32;97065.70;;;12.03
75811;BMP280;64449;50.016;19.954;2023-04-01T05:22:58;97067.30;;;12.05
75811;BMP280;64449;50.016;19.954;2023-04-01T05:25:24;97067.88;;;12.07
75811;BMP280;64449;50.016;19.954;2023-04-01T05:27:50;97061.54;;;12.08
75811;BMP280;64449;50.016;19.954;2023-04-01T05:30:15;97059.53;;;12.09
75811;BMP280;64449;50.016;19.954;2023-04-01T05:32:40;97057.84;;;12.09
75811;BMP280;64449;50.016;19.954;2023-04-01T05:35:06;97057.55;;;12.12
75811;BMP280;64449;50.016;19.954;2023-04-01T05:37:34;97059.16;;;12.17
75811;BMP280;64449;50.016;19.954;2023-04-01T05:40:00;97054.02;;;12.21
75811;BMP280;64449;50.016;19.954;2023-04-01T05:42:25;97053.52;;;12.25
75811;BMP280;64449;50.016;19.954;2023-04-01T05:44:50;97054.86;;;12.32
75811;BMP280;64449;50.016;19.954;2023-04-01T05:47:16;97057.27;;;12.36
75811;BMP280;64449;50.016;19.954;2023-04-01T05:49:41;97059.07;;;12.39
75811;BMP280;64449;50.016;19.954;2023-04-01T05:52:07;97060.34;;;12.41
75811;BMP280;64449;50.016;19.954;2023-04-01T05:54:33;97060.13;;;12.45
75811;BMP280;64449;50.016;19.954;2023-04-01T05:56:58;97059.52;;;12.47
75811;BMP280;64449;50.016;19.954;2023-04-01T05:59:23;97058.87;;;12.50
75811;BMP280;64449;50.016;19.954;2023-04-01T06:01:49;97058.36;;;12.53
75811;BMP280;64449;50.016;19.954;2023-04-01T06:04:17;97053.90;;;12.59
75811;BMP280;64449;50.016;19.954;2023-04-01T06:06:43;97051.44;;;12.62
75811;BMP280;64449;50.016;19.954;2023-04-01T06:09:23;97052.35;;;12.66
75811;BMP280;64449;50.016;19.954;2023-04-01T06:12:03;97050.92;;;12.71
75811;BMP280;64449;50.016;19.954;2023-04-01T06:18:04;97047.95;;;12.83
75811;BMP280;64449;50.016;19.954;2023-04-01T06:23:14;97043.95;;;12.97
75811;BMP280;64449;50.016;19.954;2023-04-01T06:26:10;97049.00;;;13.04
75811;BMP280;64449;50.016;19.954;2023-04-01T06:35:07;97054.87;;;13.19
75811;BMP280;64449;50.016;19.954;2023-04-01T06:42:51;97055.42;;;13.22
75811;BMP280;64449;50.016;19.954;2023-04-01T06:45:32;97062.47;;;13.32
75811;BMP280;64449;50.016;19.954;2023-04-01T06:48:25;97062.04;;;13.41
75811;BMP280;64449;50.016;19.954;2023-04-01T06:53:56;97064.95;;;13.74
75811;BMP280;64449;50.016;19.954;2023-04-01T06:56:28;97065.23;;;13.85
75811;BMP280;64449;50.016;19.954;2023-04-01T06:59:04;97060.65;;;13.87
75811;BMP280;64449;50.016;19.954;2023-04-01T07:01:41;97058.27;;;13.85
75811;BMP280;64449;50.016;19.954;2023-04-01T07:04:15;97063.66;;;13.81
75811;BMP280;64449;50.016;19.954;2023-04-01T07:06:54;97060.48;;;13.75
75811;BMP280;64449;50.016;19.954;2023-04-01T07:09:54;97058.00;;;13.72
75811;BMP280;64449;50.016;19.954;2023-04-01T07:12:33;97058.67;;;13.73
75811;BMP280;64449;50.016;19.954;2023-04-01T07:15:23;97057.99;;;13.74
75811;BMP280;64449;50.016;19.954;2023-04-01T07:18:01;97060.02;;;13.75
75811;BMP280;64449;50.016;19.954;2023-04-01T07:20:31;97065.86;;;13.70
75811;BMP280;64449;50.016;19.954;2023-04-01T07:22:59;97055.06;;;13.68
75811;BMP280;64449;50.016;19.954;2023-04-01T07:25:35;97059.13;;;13.71
75811;BMP280;64449;50.016;19.954;2023-04-01T07:28:12;97060.95;;;13.71
75811;BMP280;64449;50.016;19.954;2023-04-01T07:30:48;97063.73;;;13.71
75811;BMP280;64449;50.016;19.954;2023-04-01T07:33:20;97063.04;;;13.71
75811;BMP280;64449;50.016;19.954;2023-04-01T07:35:55;97058.25;;;13.74
75811;BMP280;64449;50.016;19.954;2023-04-01T07:38:35;97060.37;;;13.81
75811;BMP280;64449;50.016;19.954;2023-04-01T07:44:34;97054.17;;;14.04
75811;BMP280;64449;50.016;19.954;2023-04-01T08:01:05;97064.42;;;14.23
75811;BMP280;64449;50.016;19.954;2023-04-01T08:06:31;97061.55;;;14.18
75811;BMP280;64449;50.016;19.954;2023-04-01T08:16:56;97071.64;;;14.08
75811;BMP280;64449;50.016;19.954;2023-04-01T08:22:16;97076.98;;;14.40
75811;BMP280;64449;50.016;19.954;2023-04-01T08:24:46;97075.00;;;14.63
75811;BMP280;64449;50.016;19.954;2023-04-01T08:27:21;97081.52;;;14.77
75811;BMP280;64449;50.016;19.954;2023-04-01T08:32:32;97082.02;;;14.84
75811;BMP280;64449;50.016;19.954;2023-04-01T08:37:50;97079.86;;;14.79
75811;BMP280;64449;50.016;19.954;2023-04-01T08:45:48;97069.52;;;14.97
75811;BMP280;64449;50.016;19.954;2023-04-01T08:48:44;97064.31;;;15.32
75811;BMP280;64449;50.016;19.954;2023-04-01T08:59:27;97069.23;;;16.27
75811;BMP280;64449;50.016;19.954;2023-04-01T09:19:15;97054.69;;;18.49
75811;BMP280;64449;50.016;19.954;2023-04-01T09:22:13;97059.09;;;18.20
75811;BMP280;64449;50.016;19.954;2023-04-01T09:25:06;97058.09;;;18.04
75811;BMP280;64449;50.016;19.954;2023-04-01T09:27:45;97064.29;;;18.14
75811;BMP280;64449;50.016;19.954;2023-04-01T09:38:57;97055.56;;;19.68
75811;BMP280;64449;50.016;19.954;2023-04-01T09:44:04;97061.02;;;19.66
75811;BMP280;64449;50.016;19.954;2023-04-01T10:09:22;97079.45;;;17.73
75811;BMP280;64449;50.016;19.954;2023-04-01T10:21:22;97091.40;;;16.43
75811;BMP280;64449;50.016;19.954;2023-04-01T10:43:11;97107.52;;;15.59
75811;BMP280;64449;50.016;19.954;2023-04-01T10:51:33;97106.67;;;15.51
75811;BMP280;64449;50.016;19.954;2023-04-01T10:54:40;97109.09;;;15.53
75811;BMP280;64449;50.016;19.954;2023-04-01T11:19:44;97104.09;;;18.30
75811;BMP280;64449;50.016;19.954;2023-04-01T11:22:35;97101.80;;;18.07
75811;BMP280;64449;50.016;19.954;2023-04-01T11:34:14;97091.73;;;19.97
75811;BMP280;64449;50.016;19.954;2023-04-01T11:39:22;97085.67;;;22.33
75811;BMP280;64449;50.016;19.954;2023-04-01T11:44:24;97079.00;;;22.93
75811;BMP280;64449;50.016;19.954;2023-04-01T11:47:22;97079.36;;;22.58
75811;BMP280;64449;50.016;19.954;2023-04-01T11:53:01;97091.52;;;20.85
75811;BMP280;64449;50.016;19.954;2023-04-01T12:00:50;97103.83;;;18.88
75811;BMP280;64449;50.016;19.954;2023-04-01T12:03:50;97102.66;;;18.30
75811;BMP280;64449;50.016;19.954;2023-04-01T12:16:52;97099.98;;;18.71
75811;BMP280;64449;50.016;19.954;2023-04-01T12:19:29;97103.67;;;18.77
75811;BMP280;64449;50.016;19.954;2023-04-01T12:22:20;97107.17;;;18.95
75811;BMP280;64449;50.016;19.954;2023-04-01T12:25:19;97111.45;;;18.88
75811;BMP280;64449;50.016;19.954;2023-04-01T12:33:48;97111.24;;;17.74
75811;BMP280;64449;50.016;19.954;2023-04-01T12:39:27;97106.81;;;17.47
75811;BMP280;64449;50.016;19.954;2023-04-01T12:42:04;97110.95;;;17.79
75811;BMP280;64449;50.016;19.954;2023-04-01T12:55:42;97109.65;;;17.67
75811;BMP280;64449;50.016;19.954;2023-04-01T13:04:30;97126.64;;;16.64
75811;BMP280;64449;50.016;19.954;2023-04-01T13:10:04;97125.23;;;16.16
75811;BMP280;64449;50.016;19.954;2023-04-01T13:12:51;97127.67;;;16.21
75811;BMP280;64449;50.016;19.954;2023-04-01T13:15:36;97129.63;;;16.33
75811;BMP280;64449;50.016;19.954;2023-04-01T13:23:48;97136.50;;;16.58
75811;BMP280;64449;50.016;19.954;2023-04-01T13:29:20;97140.67;;;16.40
75811;BMP280;64449;50.016;19.954;2023-04-01T13:40:00;97153.05;;;15.80
75811;BMP280;64449;50.016;19.954;2023-04-01T13:42:32;97158.09;;;15.66
75811;BMP280;64449;50.016;19.954;2023-04-01T13:45:24;97163.99;;;15.56
75811;BMP280;64449;50.016;19.954;2023-04-01T14:06:19;97156.70;;;14.89
75811;BMP280;64449;50.016;19.954;2023-04-01T14:12:11;97156.02;;;14.92
75811;BMP280;64449;50.016;19.954;2023-04-01T14:37:23;97161.77;;;15.19
75811;BMP280;64449;50.016;19.954;2023-04-01T14:40:24;97167.48;;;15.13
75811;BMP280;64449;50.016;19.954;2023-04-01T14:44:04;97170.54;;;15.03
75811;BMP280;64449;50.016;19.954;2023-04-01T14:46:08;97171.45;;;15.00
75811;BMP280;64449;50.016;19.954;2023-04-01T14:48:39;97166.09;;;14.94
75811;BMP280;64449;50.016;19.954;2023-04-01T14:51:22;97177.48;;;14.90
75811;BMP280;64449;50.016;19.954;2023-04-01T14:59:01;97176.06;;;14.70
75811;BMP280;64449;50.016;19.954;2023-04-01T15:07:43;97180.42;;;14.58
75811;BMP280;64449;50.016;19.954;2023-04-01T15:16:18;97179.13;;;14.46
75811;BMP280;64449;50.016;19.954;2023-04-01T15:24:46;97193.09;;;14.40
75811;BMP280;64449;50.016;19.954;2023-04-01T15:27:34;97192.79;;;14.38
75811;BMP280;64449;50.016;19.954;2023-04-01T15:32:57;97203.07;;;14.30
75811;BMP280;64449;50.016;19.954;2023-04-01T15:35:42;97211.61;;;14.28
75811;BMP280;64449;50.016;19.954;2023-04-01T15:38:33;97213.31;;;14.25
75811;BMP280;64449;50.016;19.954;2023-04-01T15:41:21;97216.78;;;14.16
75811;BMP280;64449;50.016;19.954;2023-04-01T15:43:49;97220.85;;;14.08
75811;BMP280;64449;50.016;19.954;2023-04-01T15:46:41;97222.67;;;14.00
75811;BMP280;64449;50.016;19.954;2023-04-01T15:49:31;97226.09;;;13.95
75811;BMP280;64449;50.016;19.954;2023-04-01T15:52:10;97225.48;;;13.94
75811;BMP280;64449;50.016;19.954;2023-04-01T15:55:55;97226.77;;;13.91
75811;BMP280;64449;50.016;19.954;2023-04-01T16:03:57;97233.28;;;13.76
75811;BMP280;64449;50.016;19.954;2023-04-01T16:22:31;97255.30;;;13.50
75811;BMP280;64449;50.016;19.954;2023-04-01T16:28:04;97268.58;;;13.49
75811;BMP280;64449;50.016;19.954;2023-04-01T16:33:32;97271.89;;;13.48
75811;BMP280;64449;50.016;19.954;2023-04-01T16:36:36;97268.82;;;13.47
75811;BMP280;64449;50.016;19.954;2023-04-01T16:41:58;97270.14;;;13.43
75811;BMP280;64449;50.016;19.954;2023-04-01T16:47:17;97280.69;;;13.33
75811;BMP280;64449;50.016;19.954;2023-04-01T16:49:51;97289.74;;;13.30
75811;BMP280;64449;50.016;19.954;2023-04-01T16:55:19;97296.14;;;13.24
75811;BMP280;64449;50.016;19.954;2023-04-01T16:57:50;97298.81;;;13.23
75811;BMP280;64449;50.016;19.954;2023-04-01T17:05:39;97308.96;;;13.17
75811;BMP280;64449;50.016;19.954;2023-04-01T17:08:15;97313.39;;;13.12
75811;BMP280;64449;50.016;19.954;2023-04-01T17:10:52;97315.28;;;13.06
75811;BMP280;64449;50.016;19.954;2023-04-01T17:13:39;97319.50;;;13.04
75811;BMP280;64449;50.016;19.954;2023-04-01T17:19:26;97325.27;;;12.91
75811;BMP280;64449;50.016;19.954;2023-04-01T17:22:25;97332.77;;;12.82
75811;BMP280;64449;50.016;19.954;2023-04-01T17:33:49;97346.23;;;12.58
75811;BMP280;64449;50.016;19.954;2023-04-01T17:55:42;97364.13;;;12.38
75811;BMP280;64449;50.016;19.954;2023-04-01T17:58:28;97367.92;;;12.38
75811;BMP280;64449;50.016;19.954;2023-04-01T18:01:14;97370.49;;;12.38
75811;BMP280;64449;50.016;19.954;2023-04-01T18:19:57;97390.04;;;12.41
75811;BMP280;64449;50.016;19.954;2023-04-01T18:22:43;97391.92;;;12.41
75811;BMP280;64449;50.016;19.954;2023-04-01T18:25:19;97393.84;;;12.39
75811;BMP280;64449;50.016;19.954;2023-04-01T18:27:52;97398.09;;;12.37
75811;BMP280;64449;50.016;19.954;2023-04-01T18:30:28;97401.64;;;12.37
75811;BMP280;64449;50.016;19.954;2023-04-01T18:33:15;97403.13;;;12.36
75811;BMP280;64449;50.016;19.954;2023-04-01T18:38:46;97405.30;;;12.40
75811;BMP280;64449;50.016;19.954;2023-04-01T18:44:04;97410.83;;;12.41
75811;BMP280;64449;50.016;19.954;2023-04-01T18:52:17;97419.55;;;12.39
75811;BMP280;64449;50.016;19.954;2023-04-01T18:57:27;97426.45;;;12.38
75811;BMP280;64449;50.016;19.954;2023-04-01T19:02:48;97428.78;;;12.33
75811;BMP280;64449;50.016;19.954;2023-04-01T19:05:24;97432.36;;;12.30
75811;BMP280;64449;50.016;19.954;2023-04-01T19:07:53;97433.14;;;12.28
75811;BMP280;64449;50.016;19.954;2023-04-01T19:16:26;97437.58;;;12.28
75811;BMP280;64449;50.016;19.954;2023-04-01T19:19:19;97443.61;;;12.30
75811;BMP280;64449;50.016;19.954;2023-04-01T19:21:58;97444.59;;;12.31
75811;BMP280;64449;50.016;19.954;2023-04-01T19:29:51;97454.77;;;12.31
75811;BMP280;64449;50.016;19.954;2023-04-01T19:35:34;97465.65;;;12.25
75811;BMP280;64449;50.016;19.954;2023-04-01T19:51:36;97486.46;;;12.21
75811;BMP280;64449;50.016;19.954;2023-04-01T19:54:43;97487.96;;;12.21
75811;BMP280;64449;50.016;19.954;2023-04-01T20:07:53;97498.50;;;12.14
75811;BMP280;64449;50.016;19.954;2023-04-01T20:10:25;97505.55;;;12.13
75811;BMP280;64449;50.016;19.954;2023-04-01T20:13:11;97507.50;;;12.09
75811;BMP280;64449;50.016;19.954;2023-04-01T20:15:57;97512.83;;;12.05
75811;BMP280;64449;50.016;19.954;2023-04-01T20:23:54;97517.63;;;12.02
75811;BMP280;64449;50.016;19.954;2023-04-01T20:26:33;97519.44;;;12.02
75811;BMP280;64449;50.016;19.954;2023-04-01T20:29:27;97522.14;;;12.02
75811;BMP280;64449;50.016;19.954;2023-04-01T20:32:06;97522.95;;;12.06
75811;BMP280;64449;50.016;19.954;2023-04-01T20:35:06;97523.63;;;12.08
75811;BMP280;64449;50.016;19.954;2023-04-01T20:40:23;97529.33;;;12.09
75811;BMP280;64449;50.016;19.954;2023-04-01T20:51:14;97532.60;;;12.00
75811;BMP280;64449;50.016;19.954;2023-04-01T21:07:28;97539.14;;;11.86
75811;BMP280;64449;50.016;19.954;2023-04-01T21:10:37;97543.41;;;11.81
75811;BMP280;64449;50.016;19.954;2023-04-01T21:13:36;97545.58;;;11.77
75811;BMP280;64449;50.016;19.954;2023-04-01T21:21:46;97550.00;;;11.67
75811;BMP280;64449;50.016;19.954;2023-04-01T21:32:42;97563.48;;;11.62
75811;BMP280;64449;50.016;19.954;2023-04-01T21:49:21;97580.42;;;11.58
75811;BMP280;64449;50.016;19.954;2023-04-01T22:00:24;97582.19;;;11.62
75811;BMP280;64449;50.016;19.954;2023-04-01T22:03:10;97581.88;;;11.62
75811;BMP280;64449;50.016;19.954;2023-04-01T22:13:46;97586.15;;;11.66
75811;BMP280;64449;50.016;19.954;2023-04-01T22:16:32;97588.41;;;11.67
75811;BMP280;64449;50.016;19.954;2023-04-01T22:19:16;97592.58;;;11.67
75811;BMP280;64449;50.016;19.954;2023-04-01T22:22:24;97597.15;;;11.68
75811;BMP280;64449;50.016;19.954;2023-04-01T22:27:43;97595.44;;;11.71
75811;BMP280;64449;50.016;19.954;2023-04-01T22:33:10;97595.24;;;11.73
75811;BMP280;64449;50.016;19.954;2023-04-01T22:43:57;97600.48;;;11.76
75811;BMP280;64449;50.016;19.954;2023-04-01T22:46:38;97599.45;;;11.76
75811;BMP280;64449;50.016;19.954;2023-04-01T22:49:21;97600.43;;;11.79
75811;BMP280;64449;50.016;19.954;2023-04-01T22:52:01;97602.61;;;11.79
75811;BMP280;64449;50.016;19.954;2023-04-01T22:54:33;97606.86;;;11.78
75811;BMP280;64449;50.016;19.954;2023-04-01T22:57:04;97612.30;;;11.78
75811;BMP280;64449;50.016;19.954;2023-04-01T23:00:20;97613.77;;;11.79
75811;BMP280;64449;50.016;19.954;2023-04-01T23:03:21;97616.20;;;11.81
75811;BMP280;64449;50.016;19.954;2023-04-01T23:05:56;97618.98;;;11.81
75811;BMP280;64449;50.016;19.954;2023-04-01T23:11:48;97623.78;;;11.85
75811;BMP280;64449;50.016;19.954;2023-04-01T23:17:05;97622.52;;;11.87
75811;BMP280;64449;50.016;19.954;2023-04-01T23:20:06;97625.70;;;11.88
75811;BMP280;64449;50.016;19.954;2023-04-01T23:22:38;97625.45;;;11.87
75811;BMP280;64449;50.016;19.954;2023-04-01T23:27:53;97630.20;;;11.87
75811;BMP280;64449;50.016;19.954;2023-04-01T23:35:51;97635.08;;;11.86
75811;BMP280;64449;50.016;19.954;2023-04-01T23:38:18;97636.89;;;11.86
75811;BMP280;64449;50.016;19.954;2023-04-01T23:40:47;97641.00;;;11.86
75811;BMP280;64449;50.016;19.954;2023-04-01T23:43:21;97643.66;;;11.87
75811;BMP280;64449;50.016;19.954;2023-04-01T23:45:47;97643.01;;;11.87
75811;BMP280;64449;50.016;19.954;2023-04-01T23:48:15;97643.12;;;11.87
75811;BMP280;64449;50.016;19.954;2023-04-01T23:50:41;97645.20;;;11.89
75811;BMP280;64449;50.016;19.954;2023-04-01T23:53:18;97645.34;;;11.88
75811;BMP280;64449;50.016;19.954;2023-04-01T23:55:44;97645.90;;;11.89
